sensor_id;sensor_type;location;lat;lon;timestamp;pressure;altitude;pressure_sealevel;temperature;humidity
55301;BME280;58302;51.446;-2.000;2023-03-22T00:01:14;99041.09;;;9.08;100.00
55301;BME280;58302;51.446;-2.000;2023-03-22T00:03:41;99040.00;;;9.09;100.00
55301;BME280;58302;51.446;-2.000;2023-03-22T00:06:07;99031.88;;;9.09;100.00
55301;BME280;58302;51.446;-2.000;2023-03-22T00:08:33;99031.56;;;9.11;100.00
55301;BME280;58302;51.446;-2.000;2023-03-22T00:10:59;99014.50;;;9.10;100.00
55301;BME280;58302;51.446;-2.000;2023-03-22T00:13:26;99001.75;;;9.11;100.00
55301;BME280;58302;51.446;-2.000;2023-03-22T00:15:54;99012.59;;;9.11;100.00
55301;BME280;58302;51.446;-2.000;2023-03-22T00:18:20;98991.22;;;9.09;100.00
55301;BME280;58302;51.446;-2.000;2023-03-22T00:20:47;98983.31;;;9.13;100.00
55301;BME280;58302;51.446;-2.000;2023-03-22T00:23:13;98998.78;;;9.12;100.00
55301;BME280;58302;51.446;-2.000;2023-03-22T00:25:39;98973.53;;;9.12;100.00
55301;BME280;58302;51.446;-2.000;2023-03-22T00:28:05;98981.09;;;9.15;100.00
55301;BME280;58302;51.446;-2.000;2023-03-22T00:30:31;98987.63;;;9.14;100.00
55301;BME280;58302;51.446;-2.000;2023-03-22T00:32:57;98961.84;;;9.16;100.00
55301;BME280;58302;51.446;-2.000;2023-03-22T00:35:23;98969.69;;;9.18;100.00
55301;BME280;58302;51.446;-2.000;2023-03-22T00:37:49;98962.94;;;9.15;100.00
55301;BME280;58302;51.446;-2.000;2023-03-22T00:40:15;98957.22;;;9.17;100.00
55301;BME280;58302;51.446;-2.000;2023-03-22T00:42:41;98959.06;;;9.21;100.00
55301;BME280;58302;51.446;-2.000;2023-03-22T00:45:09;98956.34;;;9.21;100.00
55301;BME280;58302;51.446;-2.000;2023-03-22T00:47:36;98954.81;;;9.15;100.00
55301;BME280;58302;51.446;-2.000;2023-03-22T00:50:03;98953.63;;;9.21;100.00
55301;BME280;58302;51.446;-2.000;2023-03-22T00:52:30;98956.94;;;9.18;100.00
55301;BME280;58302;51.446;-2.000;2023-03-22T00:54:56;98946.09;;;9.18;100.00
55301;BME280;58302;51.446;-2.000;2023-03-22T00:57:22;98937.16;;;9.18;100.00
55301;BME280;58302;51.446;-2.000;2023-03-22T00:59:48;98950.41;;;9.19;100.00
55301;BME280;58302;51.446;-2.000;2023-03-22T01:02:14;98923.31;;;9.19;100.00
55301;BME280;58302;51.446;-2.000;2023-03-22T01:04:42;98931.94;;;9.21;100.00
55301;BME280;58302;51.446;-2.000;2023-03-22T01:07:13;98928.44;;;9.21;100.00
55301;BME280;58302;51.446;-2.000;2023-03-22T01:09:50;98905.88;;;9.26;100.00
55301;BME280;58302;51.446;-2.000;2023-03-22T01:12:17;98909.69;;;9.24;100.00
55301;BME280;58302;51.446;-2.000;2023-03-22T01:14:43;98902.06;;;9.27;100.00
55301;BME280;58302;51.446;-2.000;2023-03-22T01:17:09;98901.75;;;9.28;100.00
55301;BME280;58302;51.446;-2.000;2023-03-22T01:19:36;98891.03;;;9.23;100.00
55301;BME280;58302;51.446;-2.000;2023-03-22T01:22:04;98894.44;;;9.29;100.00
55301;BME280;58302;51.446;-2.000;2023-03-22T01:24:30;98886.59;;;9.27;100.00
55301;BME280;58302;51.446;-2.000;2023-03-22T01:26:57;98893.63;;;9.28;100.00
55301;BME280;58302;51.446;-2.000;2023-03-22T01:29:23;98892.81;;;9.28;100.00
55301;BME280;58302;51.446;-2.000;2023-03-22T01:31:50;98892.00;;;9.27;100.00
55301;BME280;58302;51.446;-2.000;2023-03-22T01:34:16;98874.38;;;9.30;100.00
55301;BME280;58302;51.446;-2.000;2023-03-22T01:36:42;98862.50;;;9.26;100.00
55301;BME280;58302;51.446;-2.000;2023-03-22T01:39:09;98879.34;;;9.22;100.00
55301;BME280;58302;51.446;-2.000;2023-03-22T01:41:35;98849.59;;;9.17;100.00
55301;BME280;58302;51.446;-2.000;2023-03-22T01:44:17;98866.69;;;9.18;100.00
55301;BME280;58302;51.446;-2.000;2023-03-22T01:46:45;98844.50;;;9.16;100.00
55301;BME280;58302;51.446;-2.000;2023-03-22T01:49:32;98851.25;;;9.18;100.00
55301;BME280;58302;51.446;-2.000;2023-03-22T01:52:10;98839.88;;;9.16;100.00
55301;BME280;58302;51.446;-2.000;2023-03-22T01:54:42;98838.56;;;9.14;100.00
55301;BME280;58302;51.446;-2.000;2023-03-22T01:57:10;98830.75;;;9.12;100.00
55301;BME280;58302;51.446;-2.000;2023-03-22T01:59:37;98825.31;;;9.12;100.00
55301;BME280;58302;51.446;-2.000;2023-03-22T02:02:04;98814.75;;;9.11;100.00
55301;BME280;58302;51.446;-2.000;2023-03-22T02:04:33;98832.03;;;9.15;100.00
55301;BME280;58302;51.446;-2.000;2023-03-22T02:07:02;98819.59;;;9.14;100.00
55301;BME280;58302;51.446;-2.000;2023-03-22T02:09:38;98825.59;;;9.11;100.00
55301;BME280;58302;51.446;-2.000;2023-03-22T02:14:53;98813.47;;;9.08;100.00
55301;BME280;58302;51.446;-2.000;2023-03-22T02:31:16;98796.59;;;9.11;100.00
55301;BME280;58302;51.446;-2.000;2023-03-22T02:41:42;98760.28;;;9.12;100.00
55301;BME280;58302;51.446;-2.000;2023-03-22T02:49:55;98765.78;;;9.07;100.00
55301;BME280;58302;51.446;-2.000;2023-03-22T02:52:26;98759.25;;;9.08;100.00
55301;BME280;58302;51.446;-2.000;2023-03-22T02:55:17;98754.03;;;9.12;100.00
55301;BME280;58302;51.446;-2.000;2023-03-22T02:57:50;98729.16;;;9.10;100.00
55301;BME280;58302;51.446;-2.000;2023-03-22T03:00:20;98749.81;;;9.06;100.00
55301;BME280;58302;51.446;-2.000;2023-03-22T03:05:17;98758.38;;;9.13;100.00
55301;BME280;58302;51.446;-2.000;2023-03-22T03:07:48;98752.44;;;9.11;100.00
55301;BME280;58302;51.446;-2.000;2023-03-22T03:10:16;98751.31;;;9.12;100.00
55301;BME280;58302;51.446;-2.000;2023-03-22T03:12:43;98742.38;;;9.11;100.00
55301;BME280;58302;51.446;-2.000;2023-03-22T03:15:18;98747.81;;;9.11;100.00
55301;BME280;58302;51.446;-2.000;2023-03-22T03:17:56;98746.19;;;9.10;100.00
55301;BME280;58302;51.446;-2.000;2023-03-22T03:25:38;98694.22;;;9.08;100.00
55301;BME280;58302;51.446;-2.000;2023-03-22T03:28:28;98682.06;;;9.06;100.00
55301;BME280;58302;51.446;-2.000;2023-03-22T03:31:19;98694.00;;;9.05;100.00
55301;BME280;58302;51.446;-2.000;2023-03-22T03:36:25;98673.13;;;9.05;100.00
55301;BME280;58302;51.446;-2.000;2023-03-22T03:38:53;98665.31;;;9.04;100.00
55301;BME280;58302;51.446;-2.000;2023-03-22T03:41:24;98673.75;;;9.02;100.00
55301;BME280;58302;51.446;-2.000;2023-03-22T03:43:53;98675.94;;;9.00;100.00
55301;BME280;58302;51.446;-2.000;2023-03-22T03:46:20;98670.50;;;9.00;100.00
55301;BME280;58302;51.446;-2.000;2023-03-22T03:48:48;98664.00;;;9.01;100.00
55301;BME280;58302;51.446;-2.000;2023-03-22T03:51:16;98651.25;;;9.02;100.00
55301;BME280;58302;51.446;-2.000;2023-03-22T03:53:42;98655.75;;;9.06;100.00
55301;BME280;58302;51.446;-2.000;2023-03-22T03:56:08;98644.91;;;9.06;100.00
55301;BME280;58302;51.446;-2.000;2023-03-22T03:58:35;98649.25;;;9.07;100.00
55301;BME280;58302;51.446;-2.000;2023-03-22T04:01:01;98645.44;;;9.08;100.00
55301;BME280;58302;51.446;-2.000;2023-03-22T04:03:29;98645.13;;;9.10;100.00
55301;BME280;58302;51.446;-2.000;2023-03-22T04:05:56;98639.72;;;9.10;100.00
55301;BME280;58302;51.446;-2.000;2023-03-22T04:08:21;98638.03;;;9.14;100.00
55301;BME280;58302;51.446;-2.000;2023-03-22T04:10:49;98633.72;;;9.13;100.00
55301;BME280;58302;51.446;-2.000;2023-03-22T04:13:17;98641.84;;;9.13;100.00
55301;BME280;58302;51.446;-2.000;2023-03-22T04:15:46;98632.91;;;9.12;100.00
55301;BME280;58302;51.446;-2.000;2023-03-22T04:18:16;98632.59;;;9.14;100.00
55301;BME280;58302;51.446;-2.000;2023-03-22T04:20:44;98627.66;;;9.16;100.00
55301;BME280;58302;51.446;-2.000;2023-03-22T04:23:11;98637.13;;;9.18;100.00
55301;BME280;58302;51.446;-2.000;2023-03-22T04:25:37;98613.22;;;9.20;100.00
55301;BME280;58302;51.446;-2.000;2023-03-22T04:28:03;98606.59;;;9.27;100.00
55301;BME280;58302;51.446;-2.000;2023-03-22T04:30:29;98613.13;;;9.26;100.00
55301;BME280;58302;51.446;-2.000;2023-03-22T04:33:04;98615.84;;;9.26;100.00
55301;BME280;58302;51.446;-2.000;2023-03-22T04:35:34;98614.13;;;9.30;100.00
55301;BME280;58302;51.446;-2.000;2023-03-22T04:38:00;98617.97;;;9.29;100.00
55301;BME280;58302;51.446;-2.000;2023-03-22T04:40:26;98616.53;;;9.31;100.00
55301;BME280;58302;51.446;-2.000;2023-03-22T04:42:57;98589.13;;;9.33;100.00
55301;BME280;58302;51.446;-2.000;2023-03-22T04:45:23;98618.34;;;9.36;100.00
55301;BME280;58302;51.446;-2.000;2023-03-22T04:47:53;98615.94;;;9.34;100.00
55301;BME280;58302;51.446;-2.000;2023-03-22T04:50:19;98630.00;;;9.36;100.00
55301;BME280;58302;51.446;-2.000;2023-03-22T04:52:45;98614.53;;;9.37;100.00
55301;BME280;58302;51.446;-2.000;2023-03-22T04:55:12;98627.50;;;9.40;100.00
55301;BME280;58302;51.446;-2.000;2023-03-22T04:57:38;98632.91;;;9.40;100.00
55301;BME280;58302;51.446;-2.000;2023-03-22T05:00:05;98631.81;;;9.41;100.00
55301;BME280;58302;51.446;-2.000;2023-03-22T05:02:34;98626.88;;;9.43;100.00
55301;BME280;58302;51.446;-2.000;2023-03-22T05:05:04;98643.66;;;9.45;100.00
55301;BME280;58302;51.446;-2.000;2023-03-22T05:07:30;98631.50;;;9.42;100.00
55301;BME280;58302;51.446;-2.000;2023-03-22T05:09:56;98637.41;;;9.44;100.00
55301;BME280;58302;51.446;-2.000;2023-03-22T05:12:22;98634.69;;;9.44;100.00
55301;BME280;58302;51.446;-2.000;2023-03-22T05:14:48;98635.22;;;9.46;100.00
55301;BME280;58302;51.446;-2.000;2023-03-22T05:17:14;98647.34;;;9.49;100.00
55301;BME280;58302;51.446;-2.000;2023-03-22T05:19:40;98637.31;;;9.49;100.00
55301;BME280;58302;51.446;-2.000;2023-03-22T05:22:05;98651.38;;;9.52;100.00
55301;BME280;58302;51.446;-2.000;2023-03-22T05:24:31;98642.25;;;9.47;100.00
55301;BME280;58302;51.446;-2.000;2023-03-22T05:26:57;98647.88;;;9.51;100.00
55301;BME280;58302;51.446;-2.000;2023-03-22T05:29:27;98642.94;;;9.53;100.00
55301;BME280;58302;51.446;-2.000;2023-03-22T05:31:53;98654.28;;;9.55;100.00
55301;BME280;58302;51.446;-2.000;2023-03-22T05:34:19;98660.31;;;9.52;100.00
55301;BME280;58302;51.446;-2.000;2023-03-22T05:36:46;98651.28;;;9.57;100.00
55301;BME280;58302;51.446;-2.000;2023-03-22T05:39:12;98651.88;;;9.54;100.00
55301;BME280;58302;51.446;-2.000;2023-03-22T05:41:40;98666.22;;;9.54;100.00
55301;BME280;58302;51.446;-2.000;2023-03-22T05:44:06;98660.31;;;9.52;100.00
55301;BME280;58302;51.446;-2.000;2023-03-22T05:46:32;98643.03;;;9.48;100.00
55301;BME280;58302;51.446;-2.000;2023-03-22T05:48:58;98602.69;;;9.46;100.00
55301;BME280;58302;51.446;-2.000;2023-03-22T05:51:24;98657.22;;;9.45;100.00
55301;BME280;58302;51.446;-2.000;2023-03-22T05:53:51;98650.47;;;9.42;100.00
55301;BME280;58302;51.446;-2.000;2023-03-22T05:56:18;98627.19;;;9.41;100.00
55301;BME280;58302;51.446;-2.000;2023-03-22T05:58:48;98617.53;;;9.35;100.00
55301;BME280;58302;51.446;-2.000;2023-03-22T06:01:15;98638.44;;;9.35;100.00
55301;BME280;58302;51.446;-2.000;2023-03-22T06:03:41;98638.72;;;9.33;100.00
55301;BME280;58302;51.446;-2.000;2023-03-22T06:06:08;98642.22;;;9.34;100.00
55301;BME280;58302;51.446;-2.000;2023-03-22T06:08:36;98662.31;;;9.33;100.00
55301;BME280;58302;51.446;-2.000;2023-03-22T06:11:02;98659.91;;;9.31;100.00
55301;BME280;58302;51.446;-2.000;2023-03-22T06:13:29;98654.78;;;9.30;100.00
55301;BME280;58302;51.446;-2.000;2023-03-22T06:15:58;98645.88;;;9.29;100.00
55301;BME280;58302;51.446;-2.000;2023-03-22T06:18:25;98652.38;;;9.28;100.00
55301;BME280;58302;51.446;-2.000;2023-03-22T06:20:51;98657.28;;;9.26;100.00
55301;BME280;58302;51.446;-2.000;2023-03-22T06:23:16;98677.88;;;9.27;100.00
55301;BME280;58302;51.446;-2.000;2023-03-22T06:25:43;98668.63;;;9.28;100.00
55301;BME280;58302;51.446;-2.000;2023-03-22T06:28:09;98668.84;;;9.32;100.00
55301;BME280;58302;51.446;-2.000;2023-03-22T06:30:35;98666.63;;;9.34;100.00
55301;BME280;58302;51.446;-2.000;2023-03-22T06:33:00;98670.66;;;9.36;100.00
55301;BME280;58302;51.446;-2.000;2023-03-22T06:35:33;98674.16;;;9.37;100.00
55301;BME280;58302;51.446;-2.000;2023-03-22T06:37:59;98683.31;;;9.41;100.00
55301;BME280;58302;51.446;-2.000;2023-03-22T06:40:26;98678.47;;;9.38;100.00
55301;BME280;58302;51.446;-2.000;2023-03-22T06:42:52;98673.38;;;9.36;100.00
55301;BME280;58302;51.446;-2.000;2023-03-22T06:45:20;98682.78;;;9.39;100.00
55301;BME280;58302;51.446;-2.000;2023-03-22T06:47:46;98680.09;;;9.39;100.00
55301;BME280;58302;51.446;-2.000;2023-03-22T06:50:13;98692.25;;;9.41;100.00
55301;BME280;58302;51.446;-2.000;2023-03-22T06:52:40;98691.44;;;9.41;100.00
55301;BME280;58302;51.446;-2.000;2023-03-22T06:55:07;98695.34;;;9.48;100.00
55301;BME280;58302;51.446;-2.000;2023-03-22T06:57:33;98698.28;;;9.52;100.00
55301;BME280;58302;51.446;-2.000;2023-03-22T06:59:58;98715.84;;;9.55;100.00
55301;BME280;58302;51.446;-2.000;2023-03-22T07:02:24;98723.69;;;9.56;100.00
55301;BME280;58302;51.446;-2.000;2023-03-22T07:04:50;98717.16;;;9.57;100.00
55301;BME280;58302;51.446;-2.000;2023-03-22T07:07:16;98727.50;;;9.55;100.00
55301;BME280;58302;51.446;-2.000;2023-03-22T07:09:42;98722.38;;;9.54;100.00
55301;BME280;58302;51.446;-2.000;2023-03-22T07:12:08;98733.00;;;9.50;100.00
55301;BME280;58302;51.446;-2.000;2023-03-22T07:14:34;98727.22;;;9.57;100.00
55301;BME280;58302;51.446;-2.000;2023-03-22T07:17:01;98732.00;;;9.60;100.00
55301;BME280;58302;51.446;-2.000;2023-03-22T07:19:27;98741.06;;;9.55;100.00
55301;BME280;58302;51.446;-2.000;2023-03-22T07:21:53;98746.28;;;9.52;100.00
55301;BME280;58302;51.446;-2.000;2023-03-22T07:24:19;98756.34;;;9.51;100.00
55301;BME280;58302;51.446;-2.000;2023-03-22T07:26:44;98761.53;;;9.61;100.00
55301;BME280;58302;51.446;-2.000;2023-03-22T07:29:11;98764.47;;;9.65;100.00
55301;BME280;58302;51.446;-2.000;2023-03-22T07:31:37;98778.94;;;9.60;100.00
55301;BME280;58302;51.446;-2.000;2023-03-22T07:34:04;98782.44;;;9.61;100.00
55301;BME280;58302;51.446;-2.000;2023-03-22T07:36:31;98783.25;;;9.61;100.00
55301;BME280;58302;51.446;-2.000;2023-03-22T07:38:57;98792.00;;;9.72;100.00
55301;BME280;58302;51.446;-2.000;2023-03-22T07:41:24;98810.19;;;9.71;100.00
55301;BME280;58302;51.446;-2.000;2023-03-22T07:43:51;98812.78;;;9.63;100.00
55301;BME280;58302;51.446;-2.000;2023-03-22T07:46:17;98812.50;;;9.64;100.00
55301;BME280;58302;51.446;-2.000;2023-03-22T07:48:44;98818.41;;;9.66;100.00
55301;BME280;58302;51.446;-2.000;2023-03-22T07:51:10;98832.28;;;9.65;100.00
55301;BME280;58302;51.446;-2.000;2023-03-22T07:53:36;98825.75;;;9.66;100.00
55301;BME280;58302;51.446;-2.000;2023-03-22T07:56:03;98840.81;;;9.72;100.00
55301;BME280;58302;51.446;-2.000;2023-03-22T07:58:29;98853.31;;;9.73;100.00
55301;BME280;58302;51.446;-2.000;2023-03-22T08:00:56;98852.88;;;9.66;100.00
55301;BME280;58302;51.446;-2.000;2023-03-22T08:03:23;98871.59;;;9.67;100.00
55301;BME280;58302;51.446;-2.000;2023-03-22T08:05:50;98869.44;;;9.64;100.00
55301;BME280;58302;51.446;-2.000;2023-03-22T08:08:16;98869.53;;;9.59;100.00
55301;BME280;58302;51.446;-2.000;2023-03-22T08:10:42;98875.25;;;9.58;100.00
55301;BME280;58302;51.446;-2.000;2023-03-22T08:13:13;98894.44;;;9.61;100.00
55301;BME280;58302;51.446;-2.000;2023-03-22T08:15:39;98879.81;;;9.62;100.00
55301;BME280;58302;51.446;-2.000;2023-03-22T08:18:05;98868.88;;;9.67;100.00
55301;BME280;58302;51.446;-2.000;2023-03-22T08:20:33;98868.56;;;9.69;100.00
55301;BME280;58302;51.446;-2.000;2023-03-22T08:22:59;98860.13;;;9.70;100.00
55301;BME280;58302;51.446;-2.000;2023-03-22T08:25:25;98864.53;;;9.66;100.00
55301;BME280;58302;51.446;-2.000;2023-03-22T08:27:51;98866.56;;;9.74;100.00
55301;BME280;58302;51.446;-2.000;2023-03-22T08:30:17;98860.91;;;9.71;100.00
55301;BME280;58302;51.446;-2.000;2023-03-22T08:32:43;98881.31;;;9.68;100.00
55301;BME280;58302;51.446;-2.000;2023-03-22T08:35:10;98889.75;;;9.67;100.00
55301;BME280;58302;51.446;-2.000;2023-03-22T08:37:37;98881.28;;;9.55;100.00
55301;BME280;58302;51.446;-2.000;2023-03-22T08:40:05;98873.31;;;9.44;100.00
55301;BME280;58302;51.446;-2.000;2023-03-22T08:42:33;98870.91;;;9.43;100.00
55301;BME280;58302;51.446;-2.000;2023-03-22T08:44:59;98866.06;;;9.40;100.00
55301;BME280;58302;51.446;-2.000;2023-03-22T08:47:25;98869.66;;;9.35;100.00
55301;BME280;58302;51.446;-2.000;2023-03-22T08:49:51;98863.72;;;9.33;100.00
55301;BME280;58302;51.446;-2.000;2023-03-22T08:52:17;98862.66;;;9.34;100.00
55301;BME280;58302;51.446;-2.000;2023-03-22T08:54:44;98850.53;;;9.45;100.00
55301;BME280;58302;51.446;-2.000;2023-03-22T08:57:10;98856.59;;;9.70;100.00
55301;BME280;58302;51.446;-2.000;2023-03-22T08:59:36;98859.97;;;10.08;100.00
55301;BME280;58302;51.446;-2.000;2023-03-22T09:02:01;98858.47;;;10.57;100.00
55301;BME280;58302;51.446;-2.000;2023-03-22T09:04:28;98870.19;;;11.16;100.00
55301;BME280;58302;51.446;-2.000;2023-03-22T09:06:53;98882.78;;;11.79;100.00
55301;BME280;58302;51.446;-2.000;2023-03-22T09:09:20;98887.22;;;12.29;100.00
55301;BME280;58302;51.446;-2.000;2023-03-22T09:11:46;98901.63;;;12.69;100.00
55301;BME280;58302;51.446;-2.000;2023-03-22T09:14:12;98905.03;;;13.09;100.00
55301;BME280;58302;51.446;-2.000;2023-03-22T09:16:37;98913.84;;;13.06;100.00
55301;BME280;58302;51.446;-2.000;2023-03-22T09:19:04;98911.66;;;13.26;100.00
55301;BME280;58302;51.446;-2.000;2023-03-22T09:21:40;98912.94;;;13.37;100.00
55301;BME280;58302;51.446;-2.000;2023-03-22T09:24:06;98906.03;;;13.39;100.00
55301;BME280;58302;51.446;-2.000;2023-03-22T09:26:45;98906.66;;;13.62;100.00
55301;BME280;58302;51.446;-2.000;2023-03-22T09:29:12;98909.56;;;13.57;100.00
55301;BME280;58302;51.446;-2.000;2023-03-22T09:31:41;98916.47;;;13.55;100.00
55301;BME280;58302;51.446;-2.000;2023-03-22T09:34:11;98918.69;;;13.70;100.00
55301;BME280;58302;51.446;-2.000;2023-03-22T09:37:14;98921.41;;;13.87;100.00
55301;BME280;58302;51.446;-2.000;2023-03-22T09:39:51;98909.06;;;14.28;100.00
55301;BME280;58302;51.446;-2.000;2023-03-22T09:42:38;98924.84;;;14.69;100.00
55301;BME280;58302;51.446;-2.000;2023-03-22T09:45:58;98927.38;;;14.74;100.00
55301;BME280;58302;51.446;-2.000;2023-03-22T09:48:31;98927.91;;;14.68;100.00
55301;BME280;58302;51.446;-2.000;2023-03-22T09:54:03;98918.41;;;14.95;100.00
55301;BME280;58302;51.446;-2.000;2023-03-22T10:06:20;98947.72;;;15.15;100.00
55301;BME280;58302;51.446;-2.000;2023-03-22T10:09:07;98949.47;;;15.20;100.00
55301;BME280;58302;51.446;-2.000;2023-03-22T10:14:40;98953.41;;;15.31;100.00
55301;BME280;58302;51.446;-2.000;2023-03-22T10:17:15;98964.16;;;15.57;100.00
55301;BME280;58302;51.446;-2.000;2023-03-22T10:19:53;98969.63;;;15.66;100.00
55301;BME280;58302;51.446;-2.000;2023-03-22T10:22:28;98965.31;;;15.56;100.00
55301;BME280;58302;51.446;-2.000;2023-03-22T10:24:56;98982.13;;;15.88;100.00
55301;BME280;58302;51.446;-2.000;2023-03-22T10:27:28;98979.38;;;15.46;100.00
55301;BME280;58302;51.446;-2.000;2023-03-22T10:29:58;98979.25;;;14.92;100.00
55301;BME280;58302;51.446;-2.000;2023-03-22T10:33:08;98970.75;;;14.46;100.00
55301;BME280;58302;51.446;-2.000;2023-03-22T10:35:38;98967.22;;;14.37;100.00
55301;BME280;58302;51.446;-2.000;2023-03-22T10:38:06;98969.72;;;14.13;100.00
55301;BME280;58302;51.446;-2.000;2023-03-22T10:40:35;98977.19;;;14.33;100.00
55301;BME280;58302;51.446;-2.000;2023-03-22T10:43:06;98981.53;;;14.52;100.00
55301;BME280;58302;51.446;-2.000;2023-03-22T10:45:33;98984.69;;;15.00;100.00
55301;BME280;58302;51.446;-2.000;2023-03-22T10:48:15;98987.25;;;15.47;100.00
55301;BME280;58302;51.446;-2.000;2023-03-22T10:50:48;98979.28;;;15.63;100.00
55301;BME280;58302;51.446;-2.000;2023-03-22T10:53:29;98987.50;;;15.63;100.00
55301;BME280;58302;51.446;-2.000;2023-03-22T10:55:57;98979.31;;;15.34;100.00
55301;BME280;58302;51.446;-2.000;2023-03-22T10:58:31;98979.09;;;15.18;100.00
55301;BME280;58302;51.446;-2.000;2023-03-22T11:01:03;98981.66;;;15.23;100.00
55301;BME280;58302;51.446;-2.000;2023-03-22T11:03:39;98973.25;;;15.28;100.00
55301;BME280;58302;51.446;-2.000;2023-03-22T11:06:07;98961.06;;;15.67;100.00
55301;BME280;58302;51.446;-2.000;2023-03-22T11:08:49;98985.72;;;15.59;100.00
55301;BME280;58302;51.446;-2.000;2023-03-22T11:14:04;98959.00;;;16.10;100.00
55301;BME280;58302;51.446;-2.000;2023-03-22T11:16:41;98980.94;;;16.10;100.00
55301;BME280;58302;51.446;-2.000;2023-03-22T11:19:16;98966.88;;;16.32;100.00
55301;BME280;58302;51.446;-2.000;2023-03-22T11:21:45;99041.66;;;16.66;100.00
55301;BME280;58302;51.446;-2.000;2023-03-22T11:24:12;99034.94;;;16.75;100.00
55301;BME280;58302;51.446;-2.000;2023-03-22T11:26:40;99049.00;;;16.86;100.00
55301;BME280;58302;51.446;-2.000;2023-03-22T11:29:14;99043.66;;;17.14;100.00
55301;BME280;58302;51.446;-2.000;2023-03-22T11:31:53;99036.06;;;17.72;100.00
55301;BME280;58302;51.446;-2.000;2023-03-22T11:34:21;99046.81;;;17.77;100.00
55301;BME280;58302;51.446;-2.000;2023-03-22T11:36:48;99043.19;;;17.24;100.00
55301;BME280;58302;51.446;-2.000;2023-03-22T11:39:23;99039.97;;;17.59;100.00
55301;BME280;58302;51.446;-2.000;2023-03-22T11:41:50;99037.47;;;17.54;100.00
55301;BME280;58302;51.446;-2.000;2023-03-22T11:44:19;99033.69;;;17.58;100.00
55301;BME280;58302;51.446;-2.000;2023-03-22T11:46:54;99032.78;;;17.30;100.00
55301;BME280;58302;51.446;-2.000;2023-03-22T11:49:25;99026.50;;;17.29;100.00
55301;BME280;58302;51.446;-2.000;2023-03-22T11:51:53;99038.16;;;17.02;100.00
55301;BME280;58302;51.446;-2.000;2023-03-22T11:54:29;99037.81;;;17.28;100.00
55301;BME280;58302;51.446;-2.000;2023-03-22T11:56:58;99051.28;;;17.57;100.00
55301;BME280;58302;51.446;-2.000;2023-03-22T11:59:28;99044.69;;;17.34;100.00
55301;BME280;58302;51.446;-2.000;2023-03-22T12:04:51;99033.03;;;16.76;100.00
55301;BME280;58302;51.446;-2.000;2023-03-22T12:07:19;99031.97;;;16.35;100.00
55301;BME280;58302;51.446;-2.000;2023-03-22T12:16:16;99063.06;;;16.39;100.00
55301;BME280;58302;51.446;-2.000;2023-03-22T12:22:30;99040.91;;;16.44;100.00
55301;BME280;58302;51.446;-2.000;2023-03-22T12:34:54;99019.28;;;14.67;100.00
55301;BME280;58302;51.446;-2.000;2023-03-22T12:37:29;99015.59;;;14.54;100.00
55301;BME280;58302;51.446;-2.000;2023-03-22T12:40:02;99028.59;;;14.66;100.00
55301;BME280;58302;51.446;-2.000;2023-03-22T12:45:13;99002.91;;;14.41;100.00
55301;BME280;58302;51.446;-2.000;2023-03-22T12:47:42;98990.69;;;14.38;100.00
55301;BME280;58302;51.446;-2.000;2023-03-22T12:50:15;98992.63;;;14.38;100.00
55301;BME280;58302;51.446;-2.000;2023-03-22T12:52:50;99005.78;;;14.44;100.00
55301;BME280;58302;51.446;-2.000;2023-03-22T12:55:28;99000.88;;;14.20;100.00
55301;BME280;58302;51.446;-2.000;2023-03-22T12:57:56;98988.16;;;14.24;100.00
55301;BME280;58302;51.446;-2.000;2023-03-22T13:00:27;98990.41;;;14.31;100.00
55301;BME280;58302;51.446;-2.000;2023-03-22T13:03:05;98989.75;;;14.34;100.00
55301;BME280;58302;51.446;-2.000;2023-03-22T13:05:34;98984.97;;;14.14;100.00
55301;BME280;58302;51.446;-2.000;2023-03-22T13:08:01;98974.88;;;13.88;100.00
55301;BME280;58302;51.446;-2.000;2023-03-22T13:13:17;98962.06;;;13.71;100.00
55301;BME280;58302;51.446;-2.000;2023-03-22T13:21:20;98937.28;;;14.58;100.00
55301;BME280;58302;51.446;-2.000;2023-03-22T13:23:56;98935.34;;;14.88;100.00
55301;BME280;58302;51.446;-2.000;2023-03-22T13:26:50;98946.97;;;15.27;100.00
55301;BME280;58302;51.446;-2.000;2023-03-22T13:29:18;98940.72;;;15.47;100.00
55301;BME280;58302;51.446;-2.000;2023-03-22T13:31:55;98940.13;;;15.21;100.00
55301;BME280;58302;51.446;-2.000;2023-03-22T13:34:44;98938.31;;;15.25;100.00
55301;BME280;58302;51.446;-2.000;2023-03-22T13:37:28;98941.59;;;15.39;100.00
55301;BME280;58302;51.446;-2.000;2023-03-22T13:39:57;98942.25;;;15.36;100.00
55301;BME280;58302;51.446;-2.000;2023-03-22T13:42:38;98928.50;;;15.24;100.00
55301;BME280;58302;51.446;-2.000;2023-03-22T13:45:08;98917.19;;;15.05;100.00
55301;BME280;58302;51.446;-2.000;2023-03-22T13:47:43;98939.72;;;15.31;100.00
55301;BME280;58302;51.446;-2.000;2023-03-22T13:50:29;98918.41;;;15.37;100.00
55301;BME280;58302;51.446;-2.000;2023-03-22T13:53:02;98920.81;;;15.38;100.00
55301;BME280;58302;51.446;-2.000;2023-03-22T14:01:14;98917.19;;;13.98;100.00
55301;BME280;58302;51.446;-2.000;2023-03-22T14:03:42;98914.81;;;13.88;100.00
55301;BME280;58302;51.446;-2.000;2023-03-22T14:06:15;98927.50;;;13.93;100.00
55301;BME280;58302;51.446;-2.000;2023-03-22T14:08:46;98920.59;;;13.87;100.00
55301;BME280;58302;51.446;-2.000;2023-03-22T14:11:25;98881.41;;;13.91;100.00
55301;BME280;58302;51.446;-2.000;2023-03-22T14:13:59;98910.47;;;13.87;100.00
55301;BME280;58302;51.446;-2.000;2023-03-22T14:16:44;98908.25;;;13.72;100.00
55301;BME280;58302;51.446;-2.000;2023-03-22T14:19:20;98901.53;;;13.43;100.00
55301;BME280;58302;51.446;-2.000;2023-03-22T14:21:54;98896.91;;;13.27;100.00
55301;BME280;58302;51.446;-2.000;2023-03-22T14:24:23;98897.06;;;13.22;100.00
55301;BME280;58302;51.446;-2.000;2023-03-22T14:26:53;98889.00;;;13.16;100.00
55301;BME280;58302;51.446;-2.000;2023-03-22T14:29:22;98874.72;;;13.02;100.00
55301;BME280;58302;51.446;-2.000;2023-03-22T14:32:00;98888.34;;;12.93;100.00
55301;BME280;58302;51.446;-2.000;2023-03-22T14:34:31;98874.72;;;12.93;100.00
55301;BME280;58302;51.446;-2.000;2023-03-22T14:37:01;98876.16;;;13.00;100.00